sensor_id;sensor_type;location;lat;lon;timestamp;temperature;humidity
11009;DHT22;5557;51.670;7.788;2022-11-27T00:01:26;5.10;99.90
11009;DHT22;5557;51.670;7.788;2022-11-27T00:03:54;5.10;99.90
11009;DHT22;5557;51.670;7.788;2022-11-27T00:06:25;5.00;99.90
11009;DHT22;5557;51.670;7.788;2022-11-27T00:08:54;4.90;99.90
11009;DHT22;5557;51.670;7.788;2022-11-27T00:11:23;4.90;99.90
11009;DHT22;5557;51.670;7.788;2022-11-27T00:13:50;4.80;99.90
11009;DHT22;5557;51.670;7.788;2022-11-27T00:16:19;4.70;99.90
11009;DHT22;5557;51.670;7.788;2022-11-27T00:18:48;4.60;99.90
11009;DHT22;5557;51.670;7.788;2022-11-27T00:21:19;4.50;99.90
11009;DHT22;5557;51.670;7.788;2022-11-27T00:23:48;4.40;99.90
11009;DHT22;5557;51.670;7.788;2022-11-27T00:26:16;4.30;99.90
11009;DHT22;5557;51.670;7.788;2022-11-27T00:28:43;4.30;99.90
11009;DHT22;5557;51.670;7.788;2022-11-27T00:31:17;4.30;99.90
11009;DHT22;5557;51.670;7.788;2022-11-27T00:33:45;4.30;99.90
11009;DHT22;5557;51.670;7.788;2022-11-27T00:36:13;4.30;99.90
11009;DHT22;5557;51.670;7.788;2022-11-27T00:38:41;4.40;99.90
11009;DHT22;5557;51.670;7.788;2022-11-27T00:41:19;4.30;99.90
11009;DHT22;5557;51.670;7.788;2022-11-27T00:43:47;4.30;99.90
11009;DHT22;5557;51.670;7.788;2022-11-27T00:46:16;4.30;99.90
11009;DHT22;5557;51.670;7.788;2022-11-27T00:48:44;4.20;99.90
11009;DHT22;5557;51.670;7.788;2022-11-27T00:51:14;4.10;99.90
11009;DHT22;5557;51.670;7.788;2022-11-27T00:53:42;4.00;99.90
11009;DHT22;5557;51.670;7.788;2022-11-27T00:56:15;3.90;99.90
11009;DHT22;5557;51.670;7.788;2022-11-27T00:58:43;3.90;99.90
11009;DHT22;5557;51.670;7.788;2022-11-27T01:01:19;3.90;99.90
11009;DHT22;5557;51.670;7.788;2022-11-27T01:03:47;3.90;99.90
11009;DHT22;5557;51.670;7.788;2022-11-27T01:06:15;3.90;99.90
11009;DHT22;5557;51.670;7.788;2022-11-27T01:08:43;3.80;99.90
11009;DHT22;5557;51.670;7.788;2022-11-27T01:11:14;3.70;99.90
11009;DHT22;5557;51.670;7.788;2022-11-27T01:13:41;3.80;99.90
11009;DHT22;5557;51.670;7.788;2022-11-27T01:16:14;3.70;99.90
11009;DHT22;5557;51.670;7.788;2022-11-27T01:18:43;3.60;99.90
11009;DHT22;5557;51.670;7.788;2022-11-27T01:21:11;3.60;99.90
11009;DHT22;5557;51.670;7.788;2022-11-27T01:23:38;3.60;99.90
11009;DHT22;5557;51.670;7.788;2022-11-27T01:26:07;3.70;99.90
11009;DHT22;5557;51.670;7.788;2022-11-27T01:28:35;3.60;99.90
11009;DHT22;5557;51.670;7.788;2022-11-27T01:31:06;3.60;99.90
11009;DHT22;5557;51.670;7.788;2022-11-27T01:33:34;3.60;99.90
11009;DHT22;5557;51.670;7.788;2022-11-27T01:36:03;3.50;99.90
11009;DHT22;5557;51.670;7.788;2022-11-27T01:38:31;3.50;99.90
11009;DHT22;5557;51.670;7.788;2022-11-27T01:41:20;3.40;99.90
11009;DHT22;5557;51.670;7.788;2022-11-27T01:46:45;3.30;99.90
11009;DHT22;5557;51.670;7.788;2022-11-27T01:52:20;3.30;99.90
11009;DHT22;5557;51.670;7.788;2022-11-27T01:54:59;3.30;99.90
11009;DHT22;5557;51.670;7.788;2022-11-27T01:57:33;3.30;99.90
11009;DHT22;5557;51.670;7.788;2022-11-27T02:00:20;3.30;99.90
11009;DHT22;5557;51.670;7.788;2022-11-27T02:03:09;3.20;99.90
11009;DHT22;5557;51.670;7.788;2022-11-27T02:05:38;3.10;99.90
11009;DHT22;5557;51.670;7.788;2022-11-27T02:08:13;3.10;99.90
11009;DHT22;5557;51.670;7.788;2022-11-27T02:11:06;3.10;99.90
11009;DHT22;5557;51.670;7.788;2022-11-27T02:13:47;3.00;99.90
11009;DHT22;5557;51.670;7.788;2022-11-27T02:16:30;3.00;99.90
11009;DHT22;5557;51.670;7.788;2022-11-27T02:19:12;2.90;99.90
11009;DHT22;5557;51.670;7.788;2022-11-27T02:22:04;2.90;99.90
11009;DHT22;5557;51.670;7.788;2022-11-27T02:30:22;2.70;99.90
11009;DHT22;5557;51.670;7.788;2022-11-27T02:33:17;2.60;99.90
11009;DHT22;5557;51.670;7.788;2022-11-27T02:35:51;2.60;99.90
11009;DHT22;5557;51.670;7.788;2022-11-27T02:38:24;2.70;99.90
11009;DHT22;5557;51.670;7.788;2022-11-27T02:41:06;2.70;99.90
11009;DHT22;5557;51.670;7.788;2022-11-27T02:43:40;2.80;99.90
11009;DHT22;5557;51.670;7.788;2022-11-27T02:46:10;2.90;99.90
11009;DHT22;5557;51.670;7.788;2022-11-27T02:48:49;2.90;99.90
11009;DHT22;5557;51.670;7.788;2022-11-27T02:51:20;2.90;99.90
11009;DHT22;5557;51.670;7.788;2022-11-27T02:53:59;2.90;99.90
11009;DHT22;5557;51.670;7.788;2022-11-27T02:56:30;2.90;99.90
11009;DHT22;5557;51.670;7.788;2022-11-27T02:59:02;3.00;99.90
11009;DHT22;5557;51.670;7.788;2022-11-27T03:01:35;3.00;99.90
11009;DHT22;5557;51.670;7.788;2022-11-27T03:04:08;3.00;99.90
11009;DHT22;5557;51.670;7.788;2022-11-27T03:06:40;2.90;99.90
11009;DHT22;5557;51.670;7.788;2022-11-27T03:09:22;2.80;99.90
11009;DHT22;5557;51.670;7.788;2022-11-27T03:11:51;2.90;99.90
11009;DHT22;5557;51.670;7.788;2022-11-27T03:14:18;2.80;99.90
11009;DHT22;5557;51.670;7.788;2022-11-27T03:17:05;2.80;99.90
11009;DHT22;5557;51.670;7.788;2022-11-27T03:22:05;3.00;99.90
11009;DHT22;5557;51.670;7.788;2022-11-27T03:24:34;2.90;99.90
11009;DHT22;5557;51.670;7.788;2022-11-27T03:27:02;3.00;99.90
11009;DHT22;5557;51.670;7.788;2022-11-27T03:29:46;3.00;99.90
11009;DHT22;5557;51.670;7.788;2022-11-27T03:32:14;2.90;99.90
11009;DHT22;5557;51.670;7.788;2022-11-27T03:34:42;2.90;99.90
11009;DHT22;5557;51.670;7.788;2022-11-27T03:37:09;2.80;99.90
11009;DHT22;5557;51.670;7.788;2022-11-27T03:39:37;2.70;99.90
11009;DHT22;5557;51.670;7.788;2022-11-27T03:42:21;2.70;99.90
11009;DHT22;5557;51.670;7.788;2022-11-27T03:48:23;2.60;99.90
11009;DHT22;5557;51.670;7.788;2022-11-27T03:51:16;2.60;99.90
11009;DHT22;5557;51.670;7.788;2022-11-27T03:54:04;2.60;99.90
11009;DHT22;5557;51.670;7.788;2022-11-27T03:56:57;2.50;99.90
11009;DHT22;5557;51.670;7.788;2022-11-27T03:59:29;2.40;99.90
11009;DHT22;5557;51.670;7.788;2022-11-27T04:01:57;2.40;99.90
11009;DHT22;5557;51.670;7.788;2022-11-27T04:04:25;2.50;99.90
11009;DHT22;5557;51.670;7.788;2022-11-27T04:06:51;2.50;99.90
11009;DHT22;5557;51.670;7.788;2022-11-27T04:09:18;2.50;99.90
11009;DHT22;5557;51.670;7.788;2022-11-27T04:11:45;2.40;99.90
11009;DHT22;5557;51.670;7.788;2022-11-27T04:14:12;2.40;99.90
11009;DHT22;5557;51.670;7.788;2022-11-27T04:16:39;2.40;99.90
11009;DHT22;5557;51.670;7.788;2022-11-27T04:19:06;2.30;99.90
11009;DHT22;5557;51.670;7.788;2022-11-27T04:21:35;2.30;99.90
11009;DHT22;5557;51.670;7.788;2022-11-27T04:24:01;2.30;99.90
11009;DHT22;5557;51.670;7.788;2022-11-27T04:26:28;2.40;99.90
11009;DHT22;5557;51.670;7.788;2022-11-27T04:28:55;2.40;99.90
11009;DHT22;5557;51.670;7.788;2022-11-27T04:31:22;2.40;99.90
11009;DHT22;5557;51.670;7.788;2022-11-27T04:33:49;2.30;99.90
11009;DHT22;5557;51.670;7.788;2022-11-27T04:36:16;2.30;99.90
11009;DHT22;5557;51.670;7.788;2022-11-27T04:38:43;2.40;99.90
11009;DHT22;5557;51.670;7.788;2022-11-27T04:41:10;2.40;99.90
11009;DHT22;5557;51.670;7.788;2022-11-27T04:43:37;2.40;99.90
11009;DHT22;5557;51.670;7.788;2022-11-27T04:46:04;2.40;99.90
11009;DHT22;5557;51.670;7.788;2022-11-27T04:48:31;2.40;99.90
11009;DHT22;5557;51.670;7.788;2022-11-27T04:50:57;2.40;99.90
11009;DHT22;5557;51.670;7.788;2022-11-27T04:53:24;2.30;99.90
11009;DHT22;5557;51.670;7.788;2022-11-27T04:55:51;2.30;99.90
11009;DHT22;5557;51.670;7.788;2022-11-27T04:58:18;2.30;99.90
11009;DHT22;5557;51.670;7.788;2022-11-27T05:00:45;2.30;99.90
11009;DHT22;5557;51.670;7.788;2022-11-27T05:03:12;2.30;99.90
11009;DHT22;5557;51.670;7.788;2022-11-27T05:05:39;2.40;99.90
11009;DHT22;5557;51.670;7.788;2022-11-27T05:08:06;2.50;99.90
11009;DHT22;5557;51.670;7.788;2022-11-27T05:10:33;2.50;99.90
11009;DHT22;5557;51.670;7.788;2022-11-27T05:13:00;2.60;99.90
11009;DHT22;5557;51.670;7.788;2022-11-27T05:15:27;2.70;99.90
11009;DHT22;5557;51.670;7.788;2022-11-27T05:17:54;2.80;99.90
11009;DHT22;5557;51.670;7.788;2022-11-27T05:20:21;2.80;99.90
11009;DHT22;5557;51.670;7.788;2022-11-27T05:22:48;2.90;99.90
11009;DHT22;5557;51.670;7.788;2022-11-27T05:25:15;2.90;99.90
11009;DHT22;5557;51.670;7.788;2022-11-27T05:27:42;2.90;99.90
11009;DHT22;5557;51.670;7.788;2022-11-27T05:30:09;3.00;99.90
11009;DHT22;5557;51.670;7.788;2022-11-27T05:32:37;3.00;99.90
11009;DHT22;5557;51.670;7.788;2022-11-27T05:35:05;3.10;99.90
11009;DHT22;5557;51.670;7.788;2022-11-27T05:37:32;3.10;99.90
11009;DHT22;5557;51.670;7.788;2022-11-27T05:39:58;3.20;99.90
11009;DHT22;5557;51.670;7.788;2022-11-27T05:42:26;3.20;99.90
11009;DHT22;5557;51.670;7.788;2022-11-27T05:44:52;3.20;99.90
11009;DHT22;5557;51.670;7.788;2022-11-27T05:47:24;3.20;99.90
11009;DHT22;5557;51.670;7.788;2022-11-27T05:49:51;3.20;99.90
11009;DHT22;5557;51.670;7.788;2022-11-27T05:52:18;3.20;99.90
11009;DHT22;5557;51.670;7.788;2022-11-27T05:54:45;3.10;99.90
11009;DHT22;5557;51.670;7.788;2022-11-27T05:57:12;3.10;99.90
11009;DHT22;5557;51.670;7.788;2022-11-27T05:59:39;3.20;99.90
11009;DHT22;5557;51.670;7.788;2022-11-27T06:02:06;3.20;99.90
11009;DHT22;5557;51.670;7.788;2022-11-27T06:04:33;3.10;99.90
11009;DHT22;5557;51.670;7.788;2022-11-27T06:07:00;3.10;99.90
11009;DHT22;5557;51.670;7.788;2022-11-27T06:09:27;3.10;99.90
11009;DHT22;5557;51.670;7.788;2022-11-27T06:11:54;3.10;99.90
11009;DHT22;5557;51.670;7.788;2022-11-27T06:14:21;3.10;99.90
11009;DHT22;5557;51.670;7.788;2022-11-27T06:16:48;3.10;99.70
11009;DHT22;5557;51.670;7.788;2022-11-27T06:19:15;3.20;99.90
11009;DHT22;5557;51.670;7.788;2022-11-27T06:21:42;3.10;99.80
11009;DHT22;5557;51.670;7.788;2022-11-27T06:24:11;3.20;99.20
11009;DHT22;5557;51.670;7.788;2022-11-27T06:26:38;3.40;98.20
11009;DHT22;5557;51.670;7.788;2022-11-27T06:29:05;3.50;96.80
11009;DHT22;5557;51.670;7.788;2022-11-27T06:31:32;3.60;95.50
11009;DHT22;5557;51.670;7.788;2022-11-27T06:34:00;3.80;93.60
11009;DHT22;5557;51.670;7.788;2022-11-27T06:36:32;4.00;91.80
11009;DHT22;5557;51.670;7.788;2022-11-27T06:38:59;4.00;91.10
11009;DHT22;5557;51.670;7.788;2022-11-27T06:41:27;4.10;90.30
11009;DHT22;5557;51.670;7.788;2022-11-27T06:43:54;4.10;90.40
11009;DHT22;5557;51.670;7.788;2022-11-27T06:46:23;4.00;90.90
11009;DHT22;5557;51.670;7.788;2022-11-27T06:48:52;4.00;91.30
11009;DHT22;5557;51.670;7.788;2022-11-27T06:51:22;3.90;92.30
11009;DHT22;5557;51.670;7.788;2022-11-27T06:53:50;4.00;92.50
11009;DHT22;5557;51.670;7.788;2022-11-27T06:56:20;4.00;92.80
11009;DHT22;5557;51.670;7.788;2022-11-27T06:58:50;4.10;92.10
11009;DHT22;5557;51.670;7.788;2022-11-27T07:01:18;4.20;91.80
11009;DHT22;5557;51.670;7.788;2022-11-27T07:03:45;4.20;91.60
11009;DHT22;5557;51.670;7.788;2022-11-27T07:06:16;4.20;91.50
11009;DHT22;5557;51.670;7.788;2022-11-27T07:08:43;4.20;91.50
11009;DHT22;5557;51.670;7.788;2022-11-27T07:11:18;4.30;90.90
11009;DHT22;5557;51.670;7.788;2022-11-27T07:13:47;4.50;90.00
11009;DHT22;5557;51.670;7.788;2022-11-27T07:16:15;4.50;88.70
11009;DHT22;5557;51.670;7.788;2022-11-27T07:18:44;4.60;86.90
11009;DHT22;5557;51.670;7.788;2022-11-27T07:21:12;4.70;85.60
11009;DHT22;5557;51.670;7.788;2022-11-27T07:23:39;4.90;84.60
11009;DHT22;5557;51.670;7.788;2022-11-27T07:26:26;4.90;83.80
11009;DHT22;5557;51.670;7.788;2022-11-27T07:28:53;5.10;81.60
11009;DHT22;5557;51.670;7.788;2022-11-27T07:31:23;5.30;78.30
11009;DHT22;5557;51.670;7.788;2022-11-27T07:33:50;5.40;74.60
11009;DHT22;5557;51.670;7.788;2022-11-27T07:36:22;5.40;74.30
11009;DHT22;5557;51.670;7.788;2022-11-27T07:38:49;5.60;72.50
11009;DHT22;5557;51.670;7.788;2022-11-27T07:41:17;5.70;71.50
11009;DHT22;5557;51.670;7.788;2022-11-27T07:43:44;5.70;71.70
11009;DHT22;5557;51.670;7.788;2022-11-27T07:46:22;5.80;71.00
11009;DHT22;5557;51.670;7.788;2022-11-27T07:48:49;5.90;71.00
11009;DHT22;5557;51.670;7.788;2022-11-27T07:51:19;5.90;70.70
11009;DHT22;5557;51.670;7.788;2022-11-27T07:53:46;6.00;69.80
11009;DHT22;5557;51.670;7.788;2022-11-27T07:56:14;6.10;67.50
11009;DHT22;5557;51.670;7.788;2022-11-27T07:58:42;6.20;67.30
11009;DHT22;5557;51.670;7.788;2022-11-27T08:01:16;6.20;67.50
11009;DHT22;5557;51.670;7.788;2022-11-27T08:03:43;6.40;65.10
11009;DHT22;5557;51.670;7.788;2022-11-27T08:06:22;6.60;59.50
11009;DHT22;5557;51.670;7.788;2022-11-27T08:08:50;6.70;58.50
11009;DHT22;5557;51.670;7.788;2022-11-27T08:11:25;6.70;58.80
11009;DHT22;5557;51.670;7.788;2022-11-27T08:13:58;6.80;59.00
11009;DHT22;5557;51.670;7.788;2022-11-27T08:16:26;6.90;55.70
11009;DHT22;5557;51.670;7.788;2022-11-27T08:18:53;6.80;55.40
11009;DHT22;5557;51.670;7.788;2022-11-27T08:21:20;6.80;56.20
11009;DHT22;5557;51.670;7.788;2022-11-27T08:23:47;6.80;59.50
11009;DHT22;5557;51.670;7.788;2022-11-27T08:26:15;6.70;60.00
11009;DHT22;5557;51.670;7.788;2022-11-27T08:28:42;6.70;55.90
11009;DHT22;5557;51.670;7.788;2022-11-27T08:31:11;6.70;57.70
11009;DHT22;5557;51.670;7.788;2022-11-27T08:33:39;6.70;57.50
11009;DHT22;5557;51.670;7.788;2022-11-27T08:36:07;6.70;55.60
11009;DHT22;5557;51.670;7.788;2022-11-27T08:38:40;6.80;54.30
11009;DHT22;5557;51.670;7.788;2022-11-27T08:41:08;6.90;52.90
11009;DHT22;5557;51.670;7.788;2022-11-27T08:43:35;6.90;52.30
11009;DHT22;5557;51.670;7.788;2022-11-27T08:46:04;7.00;50.60
11009;DHT22;5557;51.670;7.788;2022-11-27T08:48:31;7.10;47.60
11009;DHT22;5557;51.670;7.788;2022-11-27T08:50:58;7.10;47.80
11009;DHT22;5557;51.670;7.788;2022-11-27T08:53:25;7.30;45.40
11009;DHT22;5557;51.670;7.788;2022-11-27T08:56:19;7.30;43.40
11009;DHT22;5557;51.670;7.788;2022-11-27T08:58:46;7.40;39.90
11009;DHT22;5557;51.670;7.788;2022-11-27T09:01:24;7.40;37.70
11009;DHT22;5557;51.670;7.788;2022-11-27T09:03:52;7.50;37.90
11009;DHT22;5557;51.670;7.788;2022-11-27T09:06:24;7.60;35.20
11009;DHT22;5557;51.670;7.788;2022-11-27T09:08:51;7.80;38.90
11009;DHT22;5557;51.670;7.788;2022-11-27T09:11:19;8.10;36.60
11009;DHT22;5557;51.670;7.788;2022-11-27T09:13:46;8.70;24.80
11009;DHT22;5557;51.670;7.788;2022-11-27T09:16:15;9.70;7.10
11009;DHT22;5557;51.670;7.788;2022-11-27T09:18:44;10.50;1.00
11009;DHT22;5557;51.670;7.788;2022-11-27T09:21:13;11.00;1.00
11009;DHT22;5557;51.670;7.788;2022-11-27T09:23:40;11.00;1.00
11009;DHT22;5557;51.670;7.788;2022-11-27T09:26:10;10.70;1.00
11009;DHT22;5557;51.670;7.788;2022-11-27T09:28:39;10.60;1.00
11009;DHT22;5557;51.670;7.788;2022-11-27T09:31:08;10.50;1.00
11009;DHT22;5557;51.670;7.788;2022-11-27T09:33:37;10.50;1.00
11009;DHT22;5557;51.670;7.788;2022-11-27T09:36:13;10.20;1.00
11009;DHT22;5557;51.670;7.788;2022-11-27T09:38:40;9.90;1.00
11009;DHT22;5557;51.670;7.788;2022-11-27T09:41:45;9.80;1.00
11009;DHT22;5557;51.670;7.788;2022-11-27T09:44:34;9.60;1.00
11009;DHT22;5557;51.670;7.788;2022-11-27T09:50:12;9.30;1.90
11009;DHT22;5557;51.670;7.788;2022-11-27T09:55:45;9.30;3.30
11009;DHT22;5557;51.670;7.788;2022-11-27T09:58:37;9.30;3.50
11009;DHT22;5557;51.670;7.788;2022-11-27T10:01:17;9.40;1.00
11009;DHT22;5557;51.670;7.788;2022-11-27T10:03:45;9.50;1.00
11009;DHT22;5557;51.670;7.788;2022-11-27T10:10:11;9.60;1.00
11009;DHT22;5557;51.670;7.788;2022-11-27T10:16:01;9.70;1.50
11009;DHT22;5557;51.670;7.788;2022-11-27T10:18:44;9.80;1.00
11009;DHT22;5557;51.670;7.788;2022-11-27T10:21:54;9.70;1.00
11009;DHT22;5557;51.670;7.788;2022-11-27T10:24:40;9.70;1.00
11009;DHT22;5557;51.670;7.788;2022-11-27T10:27:19;9.60;1.00
11009;DHT22;5557;51.670;7.788;2022-11-27T10:29:54;9.60;1.00
11009;DHT22;5557;51.670;7.788;2022-11-27T10:32:26;9.70;1.00
11009;DHT22;5557;51.670;7.788;2022-11-27T10:35:17;9.70;1.00
11009;DHT22;5557;51.670;7.788;2022-11-27T10:37:50;9.70;1.00
11009;DHT22;5557;51.670;7.788;2022-11-27T10:44:27;9.70;1.00
11009;DHT22;5557;51.670;7.788;2022-11-27T10:47:12;9.80;1.00
11009;DHT22;5557;51.670;7.788;2022-11-27T10:49:41;9.80;1.00
11009;DHT22;5557;51.670;7.788;2022-11-27T10:52:12;9.80;1.00
11009;DHT22;5557;51.670;7.788;2022-11-27T10:54:40;9.90;1.00
11009;DHT22;5557;51.670;7.788;2022-11-27T10:57:34;9.90;1.00
11009;DHT22;5557;51.670;7.788;2022-11-27T11:00:18;10.00;1.00
11009;DHT22;5557;51.670;7.788;2022-11-27T11:02:45;10.00;1.00
11009;DHT22;5557;51.670;7.788;2022-11-27T11:05:24;10.10;1.00
11009;DHT22;5557;51.670;7.788;2022-11-27T11:08:20;10.20;1.00
11009;DHT22;5557;51.670;7.788;2022-11-27T11:10:59;10.20;1.00
11009;DHT22;5557;51.670;7.788;2022-11-27T11:16:20;10.20;1.00
11009;DHT22;5557;51.670;7.788;2022-11-27T11:18:52;10.10;1.00
11009;DHT22;5557;51.670;7.788;2022-11-27T11:21:37;10.20;1.00
11009;DHT22;5557;51.670;7.788;2022-11-27T11:24:22;10.20;1.00
11009;DHT22;5557;51.670;7.788;2022-11-27T11:26:53;10.10;1.00
11009;DHT22;5557;51.670;7.788;2022-11-27T11:29:41;10.10;1.00
11009;DHT22;5557;51.670;7.788;2022-11-27T11:32:33;10.10;1.00
11009;DHT22;5557;51.670;7.788;2022-11-27T11:35:25;10.10;1.00
11009;DHT22;5557;51.670;7.788;2022-11-27T11:37:50;10.10;1.00
11009;DHT22;5557;51.670;7.788;2022-11-27T11:40:21;10.10;1.00
11009;DHT22;5557;51.670;7.788;2022-11-27T11:43:00;10.10;1.00
11009;DHT22;5557;51.670;7.788;2022-11-27T11:45:30;10.20;1.00
11009;DHT22;5557;51.670;7.788;2022-11-27T11:48:15;10.10;1.00
11009;DHT22;5557;51.670;7.788;2022-11-27T11:53:38;10.10;1.00
11009;DHT22;5557;51.670;7.788;2022-11-27T11:56:32;10.10;1.00
11009;DHT22;5557;51.670;7.788;2022-11-27T12:05:41;10.20;1.00
11009;DHT22;5557;51.670;7.788;2022-11-27T12:08:58;10.20;1.00
11009;DHT22;5557;51.670;7.788;2022-11-27T12:12:24;10.30;1.00
11009;DHT22;5557;51.670;7.788;2022-11-27T12:21:12;10.40;1.00
11009;DHT22;5557;51.670;7.788;2022-11-27T12:27:03;10.50;1.00
11009;DHT22;5557;51.670;7.788;2022-11-27T12:29:56;10.50;1.00
11009;DHT22;5557;51.670;7.788;2022-11-27T12:32:38;10.50;1.00
11009;DHT22;5557;51.670;7.788;2022-11-27T12:35:33;10.50;1.00
11009;DHT22;5557;51.670;7.788;2022-11-27T12:38:36;10.50;1.00
11009;DHT22;5557;51.670;7.788;2022-11-27T12:44:27;10.40;1.00
11009;DHT22;5557;51.670;7.788;2022-11-27T12:47:01;10.40;1.00
11009;DHT22;5557;51.670;7.788;2022-11-27T12:49:40;10.40;1.00
11009;DHT22;5557;51.670;7.788;2022-11-27T12:52:18;10.30;1.00
11009;DHT22;5557;51.670;7.788;2022-11-27T12:54:57;10.30;1.00
11009;DHT22;5557;51.670;7.788;2022-11-27T12:57:45;10.20;1.00
11009;DHT22;5557;51.670;7.788;2022-11-27T13:00:20;10.20;1.00
11009;DHT22;5557;51.670;7.788;2022-11-27T13:05:40;10.20;1.00
11009;DHT22;5557;51.670;7.788;2022-11-27T13:08:27;10.10;1.00
11009;DHT22;5557;51.670;7.788;2022-11-27T13:11:07;10.20;1.00
11009;DHT22;5557;51.670;7.788;2022-11-27T13:13:43;10.20;1.00
11009;DHT22;5557;51.670;7.788;2022-11-27T13:16:35;10.20;1.00
11009;DHT22;5557;51.670;7.788;2022-11-27T13:19:29;10.20;1.00
11009;DHT22;5557;51.670;7.788;2022-11-27T13:22:07;10.20;1.00
11009;DHT22;5557;51.670;7.788;2022-11-27T13:24:35;10.20;1.00
11009;DHT22;5557;51.670;7.788;2022-11-27T13:27:08;10.20;1.00
11009;DHT22;5557;51.670;7.788;2022-11-27T13:29:44;10.20;1.00
11009;DHT22;5557;51.670;7.788;2022-11-27T13:34:49;10.30;1.00
11009;DHT22;5557;51.670;7.788;2022-11-27T13:37:32;10.20;1.00
11009;DHT22;5557;51.670;7.788;2022-11-27T13:40:29;10.20;1.00
11009;DHT22;5557;51.670;7.788;2022-11-27T13:43:05;10.20;1.00
11009;DHT22;5557;51.670;7.788;2022-11-27T13:45:40;10.20;1.00
11009;DHT22;5557;51.670;7.788;2022-11-27T13:48:30;10.20;1.00
11009;DHT22;5557;51.670;7.788;2022-11-27T13:50:58;10.10;1.00
11009;DHT22;5557;51.670;7.788;2022-11-27T13:53:35;10.10;1.00
11009;DHT22;5557;51.670;7.788;2022-11-27T13:56:04;10.10;1.00
11009;DHT22;5557;51.670;7.788;2022-11-27T13:58:41;10.10;1.00
11009;DHT22;5557;51.670;7.788;2022-11-27T14:01:18;10.10;1.00
11009;DHT22;5557;51.670;7.788;2022-11-27T14:03:47;10.20;1.00
11009;DHT22;5557;51.670;7.788;2022-11-27T14:06:22;10.20;1.00
11009;DHT22;5557;51.670;7.788;2022-11-27T14:08:59;10.20;1.00
11009;DHT22;5557;51.670;7.788;2022-11-27T14:11:32;10.10;1.00
11009;DHT22;5557;51.670;7.788;2022-11-27T14:14:01;10.10;1.00
11009;DHT22;5557;51.670;7.788;2022-11-27T14:16:34;10.10;1.00
11009;DHT22;5557;51.670;7.788;2022-11-27T14:19:19;10.10;1.00
11009;DHT22;5557;51.670;7.788;2022-11-27T14:21:48;10.00;1.00
11009;DHT22;5557;51.670;7.788;2022-11-27T14:24:39;10.00;1.00
11009;DHT22;5557;51.670;7.788;2022-11-27T14:27:22;10.00;1.00
11009;DHT22;5557;51.670;7.788;2022-11-27T14:29:50;10.00;1.00
11009;DHT22;5557;51.670;7.788;2022-11-27T14:32:19;9.90;1.00
11009;DHT22;5557;51.670;7.788;2022-11-27T14:34:47;9.90;1.00
11009;DHT22;5557;51.670;7.788;2022-11-27T14:37:26;9.90;1.00
11009;DHT22;5557;51.670;7.788;2022-11-27T14:39:54;9.80;1.00
11009;DHT22;5557;51.670;7.788;2022-11-27T14:42:24;9.80;1.00
11009;DHT22;5557;51.670;7.788;2022-11-27T14:45:14;9.80;1.00
11009;DHT22;5557;51.670;7.788;2022-11-27T14:47:48;9.80;1.00
11009;DHT22;5557;51.670;7.788;2022-11-27T14:50:16;9.80;1.00
11009;DHT22;5557;51.670;7.788;2022-11-27T14:52:52;9.70;1.00
11009;DHT22;5557;51.670;7.788;2022-11-27T14:55:20;9.70;1.00
11009;DHT22;5557;51.670;7.788;2022-11-27T14:57:49;9.70;1.00
11009;DHT22;5557;51.670;7.788;2022-11-27T15:00:26;9.60;1.00
11009;DHT22;5557;51.670;7.788;2022-11-27T15:02:53;9.60;1.00
11009;DHT22;5557;51.670;7.788;2022-11-27T15:05:24;9.60;1.00
11009;DHT22;5557;51.670;7.788;2022-11-27T15:07:54;9.50;1.00
11009;DHT22;5557;51.670;7.788;2022-11-27T15:10:37;9.50;1.00
11009;DHT22;5557;51.670;7.788;2022-11-27T15:13:19;9.60;1.00
11009;DHT22;5557;51.670;7.788;2022-11-27T15:16:02;9.60;1.00
11009;DHT22;5557;51.670;7.788;2022-11-27T15:18:32;9.60;1.00
11009;DHT22;5557;51.670;7.788;2022-11-27T15:21:09;9.60;1.00
11009;DHT22;5557;51.670;7.788;2022-11-27T15:23:43;9.60;1.00
11009;DHT22;5557;51.670;7.788;2022-11-27T15:26:13;9.60;1.00
11009;DHT22;5557;51.670;7.788;2022-11-27T15:28:51;9.60;1.00
11009;DHT22;5557;51.670;7.788;2022-11-27T15:31:32;9.50;1.00
11009;DHT22;5557;51.670;7.788;2022-11-27T15:34:32;9.50;1.00
11009;DHT22;5557;51.670;7.788;2022-11-27T15:37:02;9.50;1.00
11009;DHT22;5557;51.670;7.788;2022-11-27T15:39:53;9.50;1.00
11009;DHT22;5557;51.670;7.788;2022-11-27T15:42:21;9.50;1.00
11009;DHT22;5557;51.670;7.788;2022-11-27T15:44:51;9.50;1.00
11009;DHT22;5557;51.670;7.788;2022-11-27T15:47:29;9.50;1.00
11009;DHT22;5557;51.670;7.788;2022-11-27T15:49:57;9.60;1.00
11009;DHT22;5557;51.670;7.788;2022-11-27T15:52:25;9.50;1.00
11009;DHT22;5557;51.670;7.788;2022-11-27T15:54:52;9.50;1.00
11009;DHT22;5557;51.670;7.788;2022-11-27T15:57:21;9.50;1.00
11009;DHT22;5557;51.670;7.788;2022-11-27T15:59:48;9.50;1.00
11009;DHT22;5557;51.670;7.788;2022-11-27T16:02:15;9.40;1.00
11009;DHT22;5557;51.670;7.788;2022-11-27T16:04:44;9.30;1.00
11009;DHT22;5557;51.670;7.788;2022-11-27T16:07:11;9.30;1.00
11009;DHT22;5557;51.670;7.788;2022-11-27T16:09:37;9.20;1.00
11009;DHT22;5557;51.670;7.788;2022-11-27T16:12:05;9.10;1.00
11009;DHT22;5557;51.670;7.788;2022-11-27T16:14:32;9.00;1.00
11009;DHT22;5557;51.670;7.788;2022-11-27T16:19:55;8.90;6.90
11009;DHT22;5557;51.670;7.788;2022-11-27T16:22:22;8.80;9.00
11009;DHT22;5557;51.670;7.788;2022-11-27T16:24:49;8.80;12.70
11009;DHT22;5557;51.670;7.788;2022-11-27T16:27:16;8.70;12.30
11009;DHT22;5557;51.670;7.788;2022-11-27T16:29:43;8.60;13.10
11009;DHT22;5557;51.670;7.788;2022-11-27T16:32:11;8.60;12.90
11009;DHT22;5557;51.670;7.788;2022-11-27T16:34:38;8.50;13.70
11009;DHT22;5557;51.670;7.788;2022-11-27T16:37:06;8.50;15.40
11009;DHT22;5557;51.670;7.788;2022-11-27T16:39:33;8.50;17.40
11009;DHT22;5557;51.670;7.788;2022-11-27T16:42:03;8.40;17.40
11009;DHT22;5557;51.670;7.788;2022-11-27T16:44:30;8.40;18.10
11009;DHT22;5557;51.670;7.788;2022-11-27T16:46:57;8.40;26.00
11009;DHT22;5557;51.670;7.788;2022-11-27T16:49:24;8.30;24.30
11009;DHT22;5557;51.670;7.788;2022-11-27T16:51:52;8.30;30.00
11009;DHT22;5557;51.670;7.788;2022-11-27T16:54:19;8.20;24.90
11009;DHT22;5557;51.670;7.788;2022-11-27T16:56:46;8.20;17.50
11009;DHT22;5557;51.670;7.788;2022-11-27T16:59:13;8.20;21.20
11009;DHT22;5557;51.670;7.788;2022-11-27T17:01:41;8.10;19.70
11009;DHT22;5557;51.670;7.788;2022-11-27T17:04:17;8.10;22.40
11009;DHT22;5557;51.670;7.788;2022-11-27T17:06:46;8.10;21.70
11009;DHT22;5557;51.670;7.788;2022-11-27T17:09:13;8.10;23.50
11009;DHT22;5557;51.670;7.788;2022-11-27T17:11:43;8.10;24.30
11009;DHT22;5557;51.670;7.788;2022-11-27T17:14:11;8.00;27.10
11009;DHT22;5557;51.670;7.788;2022-11-27T17:16:38;8.00;22.30
11009;DHT22;5557;51.670;7.788;2022-11-27T17:19:10;8.10;21.50
11009;DHT22;5557;51.670;7.788;2022-11-27T17:21:37;8.10;13.90
11009;DHT22;5557;51.670;7.788;2022-11-27T17:24:07;8.20;15.00
11009;DHT22;5557;51.670;7.788;2022-11-27T17:26:41;8.30;14.10
11009;DHT22;5557;51.670;7.788;2022-11-27T17:29:14;8.40;9.70
11009;DHT22;5557;51.670;7.788;2022-11-27T17:31:42;8.40;11.50
11009;DHT22;5557;51.670;7.788;2022-11-27T17:34:11;8.30;14.60
11009;DHT22;5557;51.670;7.788;2022-11-27T17:36:40;8.20;14.90
11009;DHT22;5557;51.670;7.788;2022-11-27T17:39:11;8.30;17.50
11009;DHT22;5557;51.670;7.788;2022-11-27T17:41:39;8.20;18.50
11009;DHT22;5557;51.670;7.788;2022-11-27T17:44:06;8.10;22.00
11009;DHT22;5557;51.670;7.788;2022-11-27T17:46:34;8.10;23.90
11009;DHT22;5557;51.670;7.788;2022-11-27T17:49:04;8.00;25.80